createdAt,value
2018-08-12T00:02:11.959Z,7.50
2018-08-12T00:04:46.265Z,7.30
2018-08-12T00:07:20.541Z,6.10
2018-08-12T00:09:54.961Z,5.50
2018-08-12T00:12:29.421Z,5.10
2018-08-12T00:15:03.766Z,5.00
2018-08-12T00:17:38.071Z,4.30
2018-08-12T00:20:15.597Z,2.80
2018-08-12T00:22:51.105Z,3.00
2018-08-12T00:25:25.503Z,3.00
2018-08-12T00:28:00.239Z,2.50
2018-08-12T00:30:35.363Z,1.80
2018-08-12T00:33:09.652Z,1.00
2018-08-12T00:35:43.996Z,1.00
2018-08-12T00:38:18.211Z,1.00
2018-08-12T00:40:52.604Z,1.30
2018-08-12T00:43:27.438Z,3.80
2018-08-12T00:46:01.757Z,5.00
2018-08-12T00:48:36.072Z,5.60
2018-08-12T00:51:10.535Z,5.60
2018-08-12T00:53:45.021Z,5.50
2018-08-12T00:56:19.647Z,4.90
2018-08-12T00:58:54.029Z,4.40
2018-08-12T01:01:28.301Z,4.30
2018-08-12T01:04:02.975Z,4.10
2018-08-12T01:06:37.282Z,3.90
2018-08-12T01:09:13.433Z,4.00
2018-08-12T01:11:48.341Z,4.30
2018-08-12T01:14:22.693Z,4.50
2018-08-12T01:16:56.980Z,4.70
2018-08-12T01:19:31.448Z,3.20
2018-08-12T01:22:05.710Z,2.50
2018-08-12T01:24:39.921Z,1.50
2018-08-12T01:27:14.214Z,1.00
2018-08-12T01:29:49.300Z,1.00
2018-08-12T01:32:23.618Z,1.30
2018-08-12T01:34:57.824Z,1.50
2018-08-12T01:37:32.071Z,1.00
2018-08-12T01:40:08.464Z,1.00
2018-08-12T01:42:45.688Z,1.00
2018-08-12T01:45:26.852Z,1.00
2018-08-12T01:48:01.125Z,1.00
2018-08-12T01:50:36.104Z,1.00
2018-08-12T01:53:10.508Z,1.00
2018-08-12T01:55:44.908Z,1.00
2018-08-12T01:58:19.124Z,1.00
2018-08-12T02:00:53.587Z,1.00
2018-08-12T02:03:29.240Z,1.20
2018-08-12T02:06:03.900Z,1.00
2018-08-12T02:08:38.294Z,1.00
2018-08-12T02:11:12.733Z,1.00
2018-08-12T02:13:46.947Z,1.00
2018-08-12T02:16:25.106Z,1.00
2018-08-12T02:18:59.396Z,1.00
2018-08-12T02:21:33.689Z,1.00
2018-08-12T02:24:08.165Z,1.00
2018-08-12T02:26:42.414Z,1.00
2018-08-12T02:29:16.771Z,1.00
2018-08-12T02:31:51.251Z,1.00
2018-08-12T02:34:25.444Z,1.00
2018-08-12T02:37:00.028Z,1.00
2018-08-12T02:39:34.356Z,1.00
2018-08-12T02:42:08.639Z,1.00
2018-08-12T02:44:42.882Z,1.00
2018-08-12T02:47:17.223Z,1.00
2018-08-12T02:49:51.779Z,1.00
2018-08-12T02:52:25.908Z,1.00
2018-08-12T02:55:00.116Z,1.00
2018-08-12T02:57:34.428Z,1.00
2018-08-12T03:00:10.236Z,1.00
2018-08-12T03:02:44.512Z,1.00
2018-08-12T03:05:18.849Z,1.00
2018-08-12T03:07:54.092Z,1.00
2018-08-12T03:10:28.452Z,1.00
2018-08-12T03:13:03.117Z,1.00
2018-08-12T03:15:37.497Z,1.00
2018-08-12T03:18:12.329Z,1.00
2018-08-12T03:20:46.637Z,1.00
2018-08-12T03:23:21.065Z,1.00
2018-08-12T03:25:55.333Z,1.00
2018-08-12T03:28:29.598Z,1.10
2018-08-12T03:31:06.102Z,1.00
2018-08-12T03:33:40.568Z,1.60
2018-08-12T03:36:15.093Z,2.00
2018-08-12T03:38:49.457Z,2.20
2018-08-12T03:41:24.551Z,2.70
2018-08-12T03:43:59.120Z,2.30
2018-08-12T03:46:33.803Z,2.40
2018-08-12T03:49:09.362Z,2.00
2018-08-12T03:51:43.785Z,2.10
2018-08-12T03:54:18.212Z,1.70
2018-08-12T03:56:53.024Z,1.80
2018-08-12T03:59:27.242Z,1.60
2018-08-12T04:02:01.706Z,1.50
2018-08-12T04:04:35.925Z,1.00
2018-08-12T04:07:10.259Z,1.00
2018-08-12T04:09:45.136Z,1.00
2018-08-12T04:12:19.375Z,1.00
2018-08-12T04:14:53.634Z,1.00
2018-08-12T04:17:27.861Z,1.00
2018-08-12T04:20:02.711Z,1.00
2018-08-12T04:22:37.926Z,1.00
2018-08-12T04:25:13.657Z,1.00
2018-08-12T04:27:49.740Z,1.00
2018-08-12T04:30:24.382Z,1.00
2018-08-12T04:33:01.133Z,1.00
2018-08-12T04:35:35.589Z,1.00
2018-08-12T04:38:11.047Z,1.00
2018-08-12T04:40:45.419Z,1.00
2018-08-12T04:43:20.483Z,1.00
2018-08-12T04:45:54.815Z,1.00
2018-08-12T04:48:29.100Z,1.00
2018-08-12T04:51:03.456Z,1.00
2018-08-12T04:53:38.748Z,1.00
2018-08-12T04:56:13.990Z,1.00
2018-08-12T04:58:48.354Z,1.00
2018-08-12T05:01:23.098Z,1.00
2018-08-12T05:03:57.358Z,1.00
2018-08-12T05:06:31.876Z,1.00
2018-08-12T05:09:09.617Z,1.00
2018-08-12T05:11:43.843Z,1.00
2018-08-12T05:14:18.645Z,1.00
2018-08-12T05:16:53.400Z,1.00
2018-08-12T05:19:28.836Z,1.00
2018-08-12T05:22:03.657Z,1.00
2018-08-12T05:24:37.852Z,1.00
2018-08-12T05:27:12.140Z,1.00
2018-08-12T05:29:46.516Z,1.00
2018-08-12T05:32:21.171Z,1.00
2018-08-12T05:34:55.372Z,1.00
2018-08-12T05:37:30.407Z,1.00
2018-08-12T05:40:07.862Z,1.00
2018-08-12T05:42:42.163Z,1.00
2018-08-12T05:45:16.318Z,1.00
2018-08-12T05:47:51.203Z,1.00
2018-08-12T05:50:25.503Z,1.00
2018-08-12T05:52:59.805Z,1.00
2018-08-12T05:55:34.450Z,1.00
2018-08-12T05:58:09.364Z,1.00
2018-08-12T06:00:44.400Z,1.00
2018-08-12T06:03:18.706Z,1.00
2018-08-12T06:05:52.994Z,1.00
2018-08-12T06:08:27.153Z,1.00
2018-08-12T06:11:02.089Z,1.00
2018-08-12T06:13:36.280Z,1.00
2018-08-12T06:16:10.560Z,1.00
2018-08-12T06:18:44.907Z,1.00
2018-08-12T06:21:19.327Z,1.00
2018-08-12T06:23:53.771Z,1.00
2018-08-12T06:26:28.914Z,1.00
2018-08-12T06:29:03.263Z,1.00
2018-08-12T06:31:37.524Z,1.00
2018-08-12T06:34:11.681Z,1.00
2018-08-12T06:36:46.861Z,1.00
2018-08-12T06:39:21.775Z,1.00
2018-08-12T06:41:56.028Z,1.00
2018-08-12T06:44:31.092Z,1.00
2018-08-12T06:47:06.336Z,1.00
2018-08-12T06:49:40.648Z,1.00
2018-08-12T06:52:15.638Z,1.00
2018-08-12T06:54:50.272Z,1.00
2018-08-12T06:57:24.465Z,1.00
2018-08-12T06:59:58.811Z,1.00
2018-08-12T07:02:33.064Z,1.00
2018-08-12T07:05:08.568Z,1.00
2018-08-12T07:07:44.046Z,1.00
2018-08-12T07:10:18.161Z,1.00
2018-08-12T07:12:52.496Z,1.00
2018-08-12T07:15:26.792Z,1.00
2018-08-12T07:18:01.109Z,1.00
2018-08-12T07:20:35.565Z,1.00
2018-08-12T07:23:09.779Z,1.00
2018-08-12T07:25:44.166Z,1.00
2018-08-12T07:28:18.484Z,1.00
2018-08-12T07:30:52.867Z,1.00
2018-08-12T07:33:27.208Z,1.00
2018-08-12T07:36:03.177Z,1.00
2018-08-12T07:38:44.198Z,1.00
2018-08-12T07:41:18.491Z,1.00
2018-08-12T07:43:52.973Z,1.00
2018-08-12T07:46:27.292Z,1.00
2018-08-12T07:49:02.869Z,1.00
2018-08-12T07:51:37.987Z,1.00
2018-08-12T07:54:12.414Z,1.00
2018-08-12T07:56:47.958Z,1.00
2018-08-12T07:59:22.263Z,1.00
2018-08-12T08:01:56.480Z,1.00
2018-08-12T08:04:30.750Z,1.00
2018-08-12T08:07:05.245Z,1.00
2018-08-12T08:09:39.952Z,1.00
2018-08-12T08:12:14.330Z,1.00
2018-08-12T08:14:48.752Z,1.00
2018-08-12T08:17:23.024Z,1.00
2018-08-12T08:19:57.924Z,1.00
2018-08-12T08:22:32.232Z,1.00
2018-08-12T08:25:07.254Z,1.00
2018-08-12T08:27:42.596Z,1.00
2018-08-12T08:30:17.056Z,1.00
2018-08-12T08:32:51.381Z,1.00
2018-08-12T08:35:25.620Z,1.00
2018-08-12T08:38:00.589Z,1.00
2018-08-12T08:40:34.816Z,1.00
2018-08-12T08:43:10.056Z,1.00
2018-08-12T08:45:44.276Z,1.00
2018-08-12T08:48:18.548Z,1.00
2018-08-12T08:50:53.599Z,1.00
2018-08-12T08:53:27.836Z,1.00
2018-08-12T08:56:02.167Z,1.00
2018-08-12T08:58:36.388Z,1.00
2018-08-12T09:01:10.819Z,1.00
2018-08-12T09:03:45.186Z,1.00
2018-08-12T09:06:19.444Z,1.00
2018-08-12T09:08:53.904Z,1.00
2018-08-12T09:11:28.838Z,1.00
2018-08-12T09:14:02.967Z,1.00
2018-08-12T09:16:38.282Z,1.00
2018-08-12T09:19:12.564Z,1.00
2018-08-12T09:21:47.235Z,1.00
2018-08-12T09:24:21.651Z,1.00
2018-08-12T09:26:55.982Z,1.00
2018-08-12T09:29:31.578Z,1.00
2018-08-12T09:32:06.670Z,1.00
2018-08-12T09:34:41.996Z,1.00
2018-08-12T09:37:16.593Z,1.00
2018-08-12T09:39:51.451Z,1.00
2018-08-12T09:42:26.675Z,1.00
2018-08-12T09:45:00.959Z,1.00
2018-08-12T09:47:35.150Z,1.00
2018-08-12T09:50:11.058Z,1.00
2018-08-12T09:52:47.429Z,1.00
2018-08-12T09:55:21.850Z,1.00
2018-08-12T09:57:56.242Z,1.00
2018-08-12T10:00:36.598Z,1.00
2018-08-12T10:03:11.269Z,1.00
2018-08-12T10:05:46.616Z,1.00
2018-08-12T10:08:20.810Z,1.00
2018-08-12T10:10:55.113Z,1.00
2018-08-12T10:13:30.678Z,1.00
2018-08-12T10:16:05.476Z,1.00
2018-08-12T10:18:40.686Z,1.00
2018-08-12T10:21:15.531Z,1.00
2018-08-12T10:23:50.488Z,1.00
2018-08-12T10:26:24.865Z,1.00
2018-08-12T10:28:59.120Z,1.00
2018-08-12T10:31:34.548Z,1.00
2018-08-12T10:34:09.612Z,1.00
2018-08-12T10:36:43.868Z,1.00
2018-08-12T10:39:18.648Z,1.00
2018-08-12T10:41:53.828Z,1.00
2018-08-12T10:44:28.105Z,1.00
2018-08-12T10:47:04.233Z,1.00
2018-08-12T10:49:39.327Z,1.00
2018-08-12T10:52:14.756Z,1.00
2018-08-12T10:54:49.386Z,1.00
2018-08-12T10:57:25.741Z,1.00
2018-08-12T11:00:11.204Z,1.00
2018-08-12T11:02:46.417Z,1.00
2018-08-12T11:05:20.993Z,1.00
2018-08-12T11:07:57.266Z,1.00
2018-08-12T11:10:31.468Z,1.00
2018-08-12T11:13:06.057Z,1.00
2018-08-12T11:15:40.291Z,1.00
2018-08-12T11:18:15.484Z,1.00
2018-08-12T11:20:49.818Z,1.00
2018-08-12T11:23:24.957Z,1.00
2018-08-12T11:25:59.247Z,1.00
2018-08-12T11:28:35.753Z,1.00
2018-08-12T11:31:10.045Z,1.00
2018-08-12T11:33:47.695Z,1.00
2018-08-12T11:36:22.656Z,1.00
2018-08-12T11:38:58.177Z,1.00
2018-08-12T11:41:32.820Z,1.00
2018-08-12T11:44:08.620Z,1.00
2018-08-12T11:46:43.017Z,1.00
2018-08-12T11:49:18.112Z,1.00
2018-08-12T11:51:52.422Z,1.00
2018-08-12T11:54:29.497Z,1.00
2018-08-12T11:57:03.937Z,1.00
2018-08-12T11:59:38.138Z,1.00
2018-08-12T12:02:12.415Z,1.00
2018-08-12T12:04:46.653Z,1.00
2018-08-12T12:07:21.793Z,1.00
2018-08-12T12:09:58.191Z,1.00
2018-08-12T12:12:32.373Z,1.00
2018-08-12T12:15:07.172Z,1.00
2018-08-12T12:17:42.056Z,1.00
2018-08-12T12:20:16.989Z,1.00
2018-08-12T12:22:51.760Z,1.00
2018-08-12T12:25:26.501Z,1.00
2018-08-12T12:28:02.775Z,1.00
2018-08-12T12:30:37.529Z,1.00
2018-08-12T12:33:13.956Z,1.00
2018-08-12T12:35:49.200Z,1.00
2018-08-12T12:38:25.465Z,1.00
2018-08-12T12:41:01.273Z,1.00
2018-08-12T12:43:38.189Z,1.00
2018-08-12T12:46:13.112Z,1.00
2018-08-12T12:48:51.916Z,1.00
2018-08-12T12:51:26.665Z,1.00
2018-08-12T12:54:03.028Z,1.00
2018-08-12T12:56:39.129Z,1.00
2018-08-12T12:59:13.297Z,1.00
2018-08-12T13:01:51.202Z,1.00
2018-08-12T13:04:25.739Z,1.00
2018-08-12T13:07:00.599Z,1.00
2018-08-12T13:09:34.852Z,1.00
2018-08-12T13:12:09.188Z,1.00
2018-08-12T13:14:43.797Z,1.00
2018-08-12T13:17:18.125Z,1.00
2018-08-12T13:19:53.364Z,1.00
2018-08-12T13:22:27.524Z,1.00
2018-08-12T13:25:01.652Z,1.00
2018-08-12T13:27:35.981Z,1.00
2018-08-12T13:30:14.423Z,1.00
2018-08-12T13:32:50.235Z,1.00
2018-08-12T13:35:24.629Z,1.00
2018-08-12T13:37:58.848Z,1.00
2018-08-12T13:40:33.179Z,1.00
2018-08-12T13:43:07.492Z,1.00
2018-08-12T13:45:41.764Z,1.00
2018-08-12T13:48:18.148Z,1.00
2018-08-12T13:50:53.807Z,1.00
2018-08-12T13:53:28.571Z,1.00
2018-08-12T13:56:02.841Z,1.00
2018-08-12T13:58:38.478Z,1.00
2018-08-12T14:01:12.754Z,1.00
2018-08-12T14:03:47.684Z,1.00
2018-08-12T14:06:21.985Z,1.00
2018-08-12T14:08:56.929Z,1.00
2018-08-12T14:11:32.164Z,1.00
2018-08-12T14:14:06.783Z,1.00
2018-08-12T14:16:42.401Z,1.00
2018-08-12T14:19:17.043Z,1.00
2018-08-12T14:21:51.288Z,1.00
2018-08-12T14:24:29.929Z,1.00
2018-08-12T14:27:04.932Z,1.00
2018-08-12T14:29:39.669Z,1.00
2018-08-12T14:32:14.724Z,1.00
2018-08-12T14:34:49.612Z,1.00
2018-08-12T14:37:24.179Z,1.00
2018-08-12T14:39:58.476Z,1.00
2018-08-12T14:42:34.041Z,1.00
2018-08-12T14:45:13.084Z,1.00
2018-08-12T14:47:48.604Z,1.00
2018-08-12T14:50:27.723Z,1.00
2018-08-12T14:53:02.775Z,1.00
2018-08-12T14:55:37.170Z,1.00
2018-08-12T14:58:11.904Z,1.00
2018-08-12T15:00:46.000Z,1.00
2018-08-12T15:03:22.209Z,1.00
2018-08-12T15:05:56.529Z,1.00
2018-08-12T15:08:30.714Z,1.00
2018-08-12T15:11:04.968Z,1.00
2018-08-12T15:13:39.111Z,1.00
2018-08-12T15:16:13.275Z,1.00
2018-08-12T15:18:47.435Z,1.00
2018-08-12T15:21:22.968Z,1.00
2018-08-12T15:23:57.928Z,1.00
2018-08-12T15:26:32.458Z,1.00
2018-08-12T15:29:08.041Z,1.00
2018-08-12T15:31:43.653Z,1.00
2018-08-12T15:34:17.808Z,1.00
2018-08-12T15:36:52.586Z,1.00
2018-08-12T15:39:27.668Z,1.00
2018-08-12T15:42:01.996Z,1.00
2018-08-12T15:44:36.392Z,1.00
2018-08-12T15:47:12.190Z,1.00
2018-08-12T15:49:47.371Z,1.00
2018-08-12T15:52:21.776Z,1.00
2018-08-12T15:54:56.870Z,1.00
2018-08-12T15:57:31.152Z,1.00
2018-08-12T16:00:08.978Z,1.00
2018-08-12T16:02:45.090Z,1.00
2018-08-12T16:05:19.635Z,1.00
2018-08-12T16:07:55.726Z,1.00
2018-08-12T16:10:32.157Z,1.00
2018-08-12T16:13:07.702Z,1.00
2018-08-12T16:15:43.288Z,1.00
2018-08-12T16:18:18.624Z,1.00
2018-08-12T16:20:53.976Z,1.00
2018-08-12T16:23:28.599Z,1.00
2018-08-12T16:26:02.817Z,1.00
2018-08-12T16:28:37.033Z,1.00
2018-08-12T16:31:11.909Z,1.00
2018-08-12T16:33:46.080Z,1.00
2018-08-12T16:36:20.492Z,1.00
2018-08-12T16:38:54.980Z,1.00
2018-08-12T16:41:29.755Z,1.00
2018-08-12T16:44:04.913Z,1.00
2018-08-12T16:46:40.614Z,1.00
2018-08-12T16:49:15.834Z,1.00
2018-08-12T16:51:51.274Z,1.00
2018-08-12T16:54:26.411Z,1.00
2018-08-12T16:57:00.641Z,1.00
2018-08-12T16:59:34.904Z,1.00
2018-08-12T17:02:09.071Z,1.00
2018-08-12T17:04:43.358Z,1.00
2018-08-12T17:07:17.867Z,1.00
2018-08-12T17:09:52.336Z,1.00
2018-08-12T17:12:26.519Z,1.00
2018-08-12T17:15:00.860Z,1.00
2018-08-12T17:17:35.192Z,1.00
2018-08-12T17:20:12.219Z,1.00
2018-08-12T17:22:46.847Z,1.00
2018-08-12T17:25:22.334Z,1.00
2018-08-12T17:27:56.661Z,1.00
2018-08-12T17:30:31.547Z,1.00
2018-08-12T17:33:06.144Z,1.00
2018-08-12T17:35:41.675Z,1.00
2018-08-12T17:38:17.426Z,1.00
2018-08-12T17:40:51.744Z,1.00
2018-08-12T17:43:26.523Z,1.00
2018-08-12T17:46:01.728Z,1.00
2018-08-12T17:48:36.393Z,1.00
2018-08-12T17:51:11.517Z,1.00
2018-08-12T17:53:46.514Z,1.00
2018-08-12T17:56:20.767Z,1.00
2018-08-12T17:58:55.123Z,1.00
2018-08-12T18:01:29.431Z,1.00
2018-08-12T18:04:03.817Z,1.00
2018-08-12T18:06:38.701Z,1.00
2018-08-12T18:09:14.203Z,1.00
2018-08-12T18:11:48.628Z,1.00
2018-08-12T18:14:24.659Z,1.00
2018-08-12T18:16:58.877Z,1.00
2018-08-12T18:19:34.834Z,1.00
2018-08-12T18:22:09.087Z,1.00
2018-08-12T18:24:44.138Z,1.00
2018-08-12T18:27:19.120Z,1.00
2018-08-12T18:29:53.595Z,1.00
2018-08-12T18:32:28.892Z,1.00
2018-08-12T18:35:03.206Z,1.00
2018-08-12T18:37:38.160Z,1.00
2018-08-12T18:40:14.818Z,1.00
2018-08-12T18:42:52.142Z,1.00
2018-08-12T18:45:27.347Z,1.00
2018-08-12T18:48:02.065Z,1.00
2018-08-12T18:50:39.680Z,1.00
2018-08-12T18:53:15.239Z,1.00
2018-08-12T18:55:50.414Z,1.00
2018-08-12T18:58:24.664Z,1.00
2018-08-12T19:00:59.902Z,1.00
2018-08-12T19:03:34.267Z,1.00
2018-08-12T19:06:08.665Z,1.00
2018-08-12T19:08:43.476Z,1.00
2018-08-12T19:11:17.831Z,1.00
2018-08-12T19:13:53.104Z,1.00
2018-08-12T19:16:27.380Z,1.00
2018-08-12T19:19:01.788Z,1.00
2018-08-12T19:21:36.084Z,1.00
2018-08-12T19:24:10.265Z,1.00
2018-08-12T19:26:45.113Z,1.00
2018-08-12T19:29:20.146Z,1.00
2018-08-12T19:31:54.485Z,1.00
2018-08-12T19:34:30.470Z,1.00
2018-08-12T19:37:05.215Z,1.00
2018-08-12T19:39:41.906Z,1.00
2018-08-12T19:42:16.138Z,1.00
2018-08-12T19:44:52.392Z,1.00
2018-08-12T19:47:28.792Z,1.00
2018-08-12T19:50:03.192Z,1.00
2018-08-12T19:52:37.859Z,1.00
2018-08-12T19:55:13.114Z,1.00
2018-08-12T19:57:50.528Z,1.00
2018-08-12T20:00:25.861Z,1.00
2018-08-12T20:03:01.754Z,1.00
2018-08-12T20:05:36.838Z,1.00
2018-08-12T20:08:11.276Z,1.00
2018-08-12T20:10:52.039Z,1.00
2018-08-12T20:13:26.875Z,1.00
2018-08-12T20:16:03.001Z,1.00
2018-08-12T20:18:37.875Z,1.00
2018-08-12T20:21:14.779Z,1.00
2018-08-12T20:23:49.164Z,1.00
2018-08-12T20:26:25.672Z,1.00
2018-08-12T20:28:59.989Z,1.00
2018-08-12T20:31:34.933Z,1.00
2018-08-12T20:34:10.228Z,1.00
2018-08-12T20:36:45.160Z,1.00
2018-08-12T20:39:19.617Z,1.00
2018-08-12T20:41:53.948Z,1.00
2018-08-12T20:44:28.413Z,1.00
2018-08-12T20:47:09.428Z,1.00
2018-08-12T20:49:44.935Z,1.00
2018-08-12T20:52:19.452Z,1.00
2018-08-12T20:54:53.725Z,1.00
2018-08-12T20:57:28.186Z,1.00
2018-08-12T21:00:02.509Z,1.00
2018-08-12T21:02:37.539Z,1.00
2018-08-12T21:05:11.932Z,1.00
2018-08-12T21:07:46.373Z,1.00
2018-08-12T21:10:20.815Z,1.00
2018-08-12T21:12:55.536Z,1.00
2018-08-12T21:15:29.958Z,1.00
2018-08-12T21:18:05.297Z,1.00
2018-08-12T21:20:39.832Z,1.00
2018-08-12T21:23:13.975Z,1.00
2018-08-12T21:25:49.421Z,1.00
2018-08-12T21:28:23.690Z,1.00
2018-08-12T21:31:01.728Z,1.00
2018-08-12T21:33:36.648Z,1.00
2018-08-12T21:36:11.255Z,1.00
2018-08-12T21:38:47.522Z,1.00
2018-08-12T21:41:22.268Z,1.00
2018-08-12T21:44:00.211Z,1.00
2018-08-12T21:46:34.512Z,1.00
2018-08-12T21:49:10.489Z,1.00
2018-08-12T21:51:44.920Z,1.00
2018-08-12T21:54:19.265Z,1.00
2018-08-12T21:56:53.520Z,1.00
2018-08-12T21:59:27.831Z,1.00
2018-08-12T22:02:02.559Z,1.00
2018-08-12T22:04:36.969Z,1.00
2018-08-12T22:07:12.595Z,1.00
2018-08-12T22:09:46.868Z,1.00
2018-08-12T22:12:21.164Z,1.00
2018-08-12T22:14:55.504Z,1.00
2018-08-12T22:17:29.807Z,1.00
2018-08-12T22:20:05.017Z,1.00
2018-08-12T22:22:39.381Z,1.00
2018-08-12T22:25:13.804Z,1.00
2018-08-12T22:27:49.025Z,1.00
2018-08-12T22:30:23.378Z,1.00
2018-08-12T22:32:57.605Z,1.00
2018-08-12T22:35:32.623Z,1.00
2018-08-12T22:38:07.662Z,1.00
2018-08-12T22:40:42.951Z,1.00
2018-08-12T22:43:17.138Z,1.00
2018-08-12T22:45:51.426Z,1.00
2018-08-12T22:48:25.824Z,1.00
2018-08-12T22:51:00.088Z,1.00
2018-08-12T22:53:34.806Z,1.00
2018-08-12T22:56:09.904Z,1.00
2018-08-12T22:58:44.205Z,1.00
2018-08-12T23:01:18.575Z,1.00
2018-08-12T23:03:52.848Z,1.00
2018-08-12T23:06:27.424Z,1.00
2018-08-12T23:09:01.916Z,1.00
2018-08-12T23:11:36.790Z,1.00
2018-08-12T23:14:11.126Z,1.00
2018-08-12T23:16:56.836Z,1.00
2018-08-12T23:19:31.408Z,1.00
2018-08-12T23:22:06.041Z,1.00
2018-08-12T23:24:40.462Z,1.00
2018-08-12T23:27:14.741Z,1.00
2018-08-12T23:29:49.113Z,1.00
2018-08-12T23:32:24.303Z,1.00
2018-08-12T23:34:58.747Z,1.00
2018-08-12T23:37:33.780Z,1.00
2018-08-12T23:40:08.292Z,1.00
2018-08-12T23:42:42.688Z,1.00
2018-08-12T23:45:17.221Z,1.00
2018-08-12T23:47:51.492Z,1.00
2018-08-12T23:50:25.852Z,1.00
2018-08-12T23:53:01.058Z,1.00
2018-08-12T23:55:35.358Z,1.00
2018-08-12T23:58:09.762Z,1.00
